createdAt,value
2023-07-07T00:00:02.256Z,5.88
2023-07-07T00:02:35.262Z,5.47
2023-07-07T00:05:02.545Z,6.18
2023-07-07T00:07:29.906Z,5.68
2023-07-07T00:09:57.130Z,5.35
2023-07-07T00:12:25.600Z,4.68
2023-07-07T00:14:53.115Z,4.97
2023-07-07T00:17:22.883Z,5.35
2023-07-07T00:19:50.180Z,5.32
2023-07-07T00:22:17.370Z,5.78
2023-07-07T00:24:44.607Z,5.63
2023-07-07T00:27:11.988Z,5.75
2023-07-07T00:29:39.743Z,5.75
2023-07-07T00:32:09.368Z,5.22
2023-07-07T00:34:36.692Z,6.10
2023-07-07T00:37:04.156Z,6.10
2023-07-07T00:39:31.469Z,6.25
2023-07-07T00:41:58.732Z,5.65
2023-07-07T00:44:30.336Z,6.28
2023-07-07T00:46:57.589Z,5.65
2023-07-07T00:49:24.829Z,5.45
2023-07-07T00:51:54.466Z,6.75
2023-07-07T00:54:25.397Z,5.45
2023-07-07T00:56:53.193Z,6.05
2023-07-07T00:59:24.788Z,5.57
2023-07-07T01:01:53.728Z,5.43
2023-07-07T01:04:21.159Z,5.60
2023-07-07T01:06:51.280Z,5.95
2023-07-07T01:09:19.008Z,5.85
2023-07-07T01:11:47.848Z,5.68
2023-07-07T01:14:20.992Z,5.60
2023-07-07T01:17:04.002Z,5.90
2023-07-07T01:19:46.404Z,5.28
2023-07-07T01:22:38.288Z,5.90
2023-07-07T01:25:18.857Z,6.47
2023-07-07T01:28:14.157Z,5.03
2023-07-07T01:30:48.472Z,5.72
2023-07-07T01:33:17.365Z,5.70
2023-07-07T01:35:45.609Z,5.32
2023-07-07T01:38:32.047Z,5.18
2023-07-07T01:41:24.211Z,5.28
2023-07-07T01:44:02.211Z,5.68
2023-07-07T01:46:56.301Z,5.53
2023-07-07T01:49:29.415Z,6.10
2023-07-07T01:52:21.760Z,5.90
2023-07-07T01:54:52.775Z,5.68
2023-07-07T01:57:20.694Z,6.13
2023-07-07T01:59:47.953Z,5.57
2023-07-07T02:02:15.219Z,5.55
2023-07-07T02:04:42.633Z,5.32
2023-07-07T02:07:09.855Z,5.95
2023-07-07T02:09:37.781Z,6.15
2023-07-07T02:12:05.705Z,5.93
2023-07-07T02:14:32.938Z,6.10
2023-07-07T02:17:00.272Z,5.97
2023-07-07T02:19:28.396Z,6.22
2023-07-07T02:21:55.640Z,5.68
2023-07-07T02:24:23.260Z,5.90
2023-07-07T02:26:51.336Z,6.35
2023-07-07T02:29:18.524Z,5.85
2023-07-07T02:31:45.985Z,5.90
2023-07-07T02:34:13.271Z,5.60
2023-07-07T02:36:40.392Z,5.90
2023-07-07T02:39:07.545Z,5.60
2023-07-07T02:41:34.856Z,5.93
2023-07-07T02:44:03.843Z,5.60
2023-07-07T02:46:31.802Z,5.38
2023-07-07T02:48:59.152Z,5.63
2023-07-07T02:51:26.385Z,5.38
2023-07-07T02:53:53.969Z,5.30
2023-07-07T02:56:21.106Z,5.85
2023-07-07T02:58:48.427Z,6.18
2023-07-07T03:01:19.582Z,6.00
2023-07-07T03:03:49.666Z,5.72
2023-07-07T03:06:22.764Z,7.93
2023-07-07T03:08:52.611Z,6.65
2023-07-07T03:11:22.627Z,6.82
2023-07-07T03:13:50.145Z,6.55
2023-07-07T03:16:23.065Z,6.13
2023-07-07T03:18:58.950Z,6.20
2023-07-07T03:21:27.354Z,5.53
2023-07-07T03:24:02.326Z,6.35
2023-07-07T03:26:32.019Z,6.22
2023-07-07T03:29:06.247Z,6.38
2023-07-07T03:31:36.004Z,6.30
2023-07-07T03:34:04.678Z,6.30
2023-07-07T03:36:36.748Z,6.30
2023-07-07T03:39:05.778Z,6.55
2023-07-07T03:41:34.175Z,6.20
2023-07-07T03:44:04.608Z,6.18
2023-07-07T03:46:36.106Z,6.72
2023-07-07T03:49:03.914Z,6.30
2023-07-07T03:51:37.321Z,5.68
2023-07-07T03:54:07.802Z,6.28
2023-07-07T03:56:37.104Z,6.43
2023-07-07T03:59:05.032Z,5.95
2023-07-07T04:01:32.640Z,6.03
2023-07-07T04:04:00.087Z,6.28
2023-07-07T04:06:27.516Z,6.18
2023-07-07T04:08:57.372Z,6.28
2023-07-07T04:11:25.800Z,5.88
2023-07-07T04:13:53.927Z,4.97
2023-07-07T04:16:25.502Z,6.38
2023-07-07T04:18:54.659Z,6.00
2023-07-07T04:21:26.950Z,6.38
2023-07-07T04:23:54.946Z,6.80
2023-07-07T04:26:22.321Z,6.13
2023-07-07T04:28:52.834Z,5.97
2023-07-07T04:31:22.055Z,5.82
2023-07-07T04:33:49.358Z,5.90
2023-07-07T04:36:16.947Z,6.90
2023-07-07T04:38:45.905Z,5.13
2023-07-07T04:41:14.290Z,5.45
2023-07-07T04:43:43.668Z,6.50
2023-07-07T04:46:13.460Z,5.75
2023-07-07T04:48:41.084Z,4.88
2023-07-07T04:51:09.551Z,5.35
2023-07-07T04:53:37.964Z,5.53
2023-07-07T04:56:12.441Z,5.47
2023-07-07T04:58:40.714Z,6.03
2023-07-07T05:01:11.468Z,5.13
2023-07-07T05:03:40.837Z,5.20
2023-07-07T05:06:08.099Z,5.25
2023-07-07T05:08:37.801Z,5.60
2023-07-07T05:11:06.541Z,4.25
2023-07-07T05:13:34.299Z,5.40
2023-07-07T05:16:06.394Z,4.55
2023-07-07T05:18:34.075Z,5.20
2023-07-07T05:21:03.803Z,5.68
2023-07-07T05:23:33.444Z,5.20
2023-07-07T05:26:00.679Z,4.30
2023-07-07T05:28:28.603Z,4.90
2023-07-07T05:30:56.044Z,3.88
2023-07-07T05:33:25.848Z,4.47
2023-07-07T05:35:54.561Z,4.63
2023-07-07T05:38:24.281Z,4.80
2023-07-07T05:40:51.852Z,6.03
2023-07-07T05:43:20.268Z,6.20
2023-07-07T05:45:47.496Z,5.95
2023-07-07T05:48:15.208Z,6.05
2023-07-07T05:50:43.449Z,6.75
2023-07-07T05:53:11.547Z,6.68
2023-07-07T05:55:39.081Z,5.95
2023-07-07T05:58:06.640Z,5.53
2023-07-07T06:00:36.667Z,5.28
2023-07-07T06:03:04.112Z,4.93
2023-07-07T06:05:33.296Z,4.28
2023-07-07T06:08:00.666Z,5.53
2023-07-07T06:10:28.595Z,4.15
2023-07-07T06:12:56.025Z,3.75
2023-07-07T06:15:23.414Z,4.05
2023-07-07T06:17:51.687Z,3.95
2023-07-07T06:20:18.905Z,3.45
2023-07-07T06:22:46.127Z,3.40
2023-07-07T06:25:13.187Z,4.55
2023-07-07T06:27:41.730Z,3.83
2023-07-07T06:30:09.174Z,3.92
2023-07-07T06:32:36.605Z,3.80
2023-07-07T06:35:04.942Z,3.55
2023-07-07T06:37:32.622Z,4.45
2023-07-07T06:39:59.914Z,5.10
2023-07-07T06:42:27.209Z,4.43
2023-07-07T06:45:06.318Z,4.47
2023-07-07T06:47:33.746Z,4.35
2023-07-07T06:50:02.132Z,4.85
2023-07-07T06:52:29.688Z,3.92
2023-07-07T06:55:01.063Z,4.30
2023-07-07T06:57:35.019Z,4.22
2023-07-07T07:00:04.212Z,4.05
2023-07-07T07:02:31.887Z,4.70
2023-07-07T07:04:59.339Z,4.10
2023-07-07T07:07:26.601Z,4.40
2023-07-07T07:09:54.137Z,4.22
2023-07-07T07:12:21.429Z,4.35
2023-07-07T07:14:49.180Z,4.53
2023-07-07T07:17:16.469Z,4.30
2023-07-07T07:19:45.717Z,4.35
2023-07-07T07:22:16.677Z,4.40
2023-07-07T07:24:43.937Z,4.18
2023-07-07T07:27:11.231Z,4.32
2023-07-07T07:29:38.566Z,4.10
2023-07-07T07:32:06.100Z,5.25
2023-07-07T07:34:36.683Z,5.47
2023-07-07T07:37:07.667Z,4.60
2023-07-07T07:39:37.295Z,4.80
2023-07-07T07:42:05.748Z,4.97
2023-07-07T07:44:33.287Z,5.30
2023-07-07T07:47:01.215Z,6.43
2023-07-07T07:49:28.708Z,5.63
2023-07-07T07:51:55.925Z,5.00
2023-07-07T07:54:23.317Z,5.30
2023-07-07T07:56:50.822Z,5.45
2023-07-07T07:59:18.159Z,5.82
2023-07-07T08:01:46.207Z,5.65
2023-07-07T08:04:13.685Z,4.88
2023-07-07T08:06:41.847Z,6.38
2023-07-07T08:09:09.895Z,5.40
2023-07-07T08:11:43.420Z,5.25
2023-07-07T08:14:21.367Z,5.00
2023-07-07T08:16:55.401Z,5.78
2023-07-07T08:19:23.041Z,5.32
2023-07-07T08:21:50.417Z,5.32
2023-07-07T08:24:17.618Z,5.93
2023-07-07T08:26:45.636Z,4.97
2023-07-07T08:31:43.308Z,6.00
2023-07-07T08:34:10.706Z,5.95
2023-07-07T08:36:38.358Z,5.10
2023-07-07T08:39:13.006Z,5.47
2023-07-07T08:41:45.275Z,5.03
2023-07-07T08:44:14.797Z,5.28
2023-07-07T08:46:47.604Z,5.20
2023-07-07T08:49:18.708Z,5.35
2023-07-07T08:51:59.744Z,5.47
2023-07-07T08:54:43.021Z,5.95
2023-07-07T08:57:11.955Z,5.57
2023-07-07T09:00:00.943Z,5.07
2023-07-07T09:03:07.341Z,4.32
2023-07-07T09:05:51.031Z,5.43
2023-07-07T09:08:30.389Z,5.60
2023-07-07T09:14:06.845Z,4.90
2023-07-07T09:16:36.189Z,5.75
2023-07-07T09:19:06.327Z,5.22
2023-07-07T09:21:42.460Z,5.40
2023-07-07T09:24:29.898Z,4.57
2023-07-07T09:26:59.682Z,4.63
2023-07-07T09:29:30.670Z,5.50
2023-07-07T09:32:00.400Z,5.13
2023-07-07T09:34:27.892Z,5.63
2023-07-07T09:37:07.277Z,5.25
2023-07-07T09:40:09.016Z,5.13
2023-07-07T09:43:05.574Z,4.78
2023-07-07T09:46:00.147Z,4.80
2023-07-07T09:48:47.591Z,5.07
2023-07-07T09:51:24.073Z,4.80
2023-07-07T09:53:51.182Z,5.38
2023-07-07T09:56:21.522Z,5.15
2023-07-07T09:58:59.248Z,5.63
2023-07-07T10:01:29.796Z,5.13
2023-07-07T10:03:57.060Z,4.90
2023-07-07T10:06:37.481Z,4.30
2023-07-07T10:09:05.484Z,4.75
2023-07-07T10:14:08.615Z,5.30
2023-07-07T10:16:44.652Z,4.95
2023-07-07T10:19:14.040Z,4.75
2023-07-07T10:21:41.154Z,3.90
2023-07-07T10:24:13.217Z,4.97
2023-07-07T10:26:43.758Z,4.03
2023-07-07T10:29:13.135Z,4.40
2023-07-07T10:31:43.914Z,4.38
2023-07-07T10:34:28.344Z,3.45
2023-07-07T10:39:32.716Z,3.28
2023-07-07T10:41:59.968Z,3.58
2023-07-07T10:44:27.973Z,3.08
2023-07-07T10:46:55.218Z,3.47
2023-07-07T10:49:25.746Z,3.83
2023-07-07T10:52:16.289Z,3.30
2023-07-07T10:55:06.385Z,3.47
2023-07-07T10:57:48.450Z,3.45
2023-07-07T11:03:51.166Z,3.50
2023-07-07T11:06:34.415Z,3.42
2023-07-07T11:09:20.239Z,3.45
2023-07-07T11:11:51.485Z,3.03
2023-07-07T11:14:48.514Z,3.50
2023-07-07T11:17:22.297Z,3.30
2023-07-07T11:20:05.821Z,3.55
2023-07-07T11:22:47.932Z,3.20
2023-07-07T11:25:15.429Z,3.30
2023-07-07T11:28:04.304Z,2.90
2023-07-07T11:31:12.734Z,3.15
2023-07-07T11:33:58.544Z,3.60
2023-07-07T11:36:34.622Z,2.88
2023-07-07T11:39:08.425Z,2.83
2023-07-07T11:44:38.696Z,2.85
2023-07-07T11:47:16.268Z,2.67
2023-07-07T11:50:05.807Z,2.40
2023-07-07T11:52:46.895Z,3.25
2023-07-07T11:55:23.365Z,2.78
2023-07-07T11:57:53.860Z,2.97
2023-07-07T12:00:27.830Z,2.83
2023-07-07T12:03:37.200Z,3.17
2023-07-07T12:06:25.460Z,3.20
2023-07-07T12:09:08.204Z,2.88
2023-07-07T12:11:40.019Z,2.85
2023-07-07T12:14:23.657Z,3.00
2023-07-07T12:16:51.053Z,3.15
2023-07-07T12:19:43.023Z,3.35
2023-07-07T12:22:16.957Z,3.30
2023-07-07T12:24:49.795Z,2.90
2023-07-07T12:27:27.172Z,2.70
2023-07-07T12:29:54.779Z,2.60
2023-07-07T12:32:24.644Z,2.97
2023-07-07T12:35:16.192Z,2.92
2023-07-07T12:37:44.266Z,2.75
2023-07-07T12:40:12.593Z,3.40
2023-07-07T12:42:41.824Z,2.47
2023-07-07T12:45:24.814Z,2.92
2023-07-07T12:47:57.293Z,2.78
2023-07-07T12:50:39.614Z,3.10
2023-07-07T12:53:24.248Z,3.15
2023-07-07T12:58:48.895Z,2.47
2023-07-07T13:01:16.947Z,2.55
2023-07-07T13:04:09.152Z,2.72
2023-07-07T13:06:40.984Z,2.80
2023-07-07T13:09:14.523Z,2.13
2023-07-07T13:11:46.931Z,2.45
2023-07-07T13:14:40.829Z,2.13
2023-07-07T13:17:12.950Z,3.03
2023-07-07T13:19:44.931Z,2.60
2023-07-07T13:22:17.772Z,3.08
2023-07-07T13:27:24.093Z,2.40
2023-07-07T13:30:00.540Z,2.60
2023-07-07T13:32:29.438Z,2.75
2023-07-07T13:34:59.925Z,2.22
2023-07-07T13:37:28.454Z,2.47
2023-07-07T13:39:57.389Z,2.45
2023-07-07T13:42:32.511Z,2.92
2023-07-07T13:45:05.293Z,3.05
2023-07-07T13:47:33.604Z,2.87
2023-07-07T13:50:03.098Z,2.70
2023-07-07T13:52:33.401Z,2.83
2023-07-07T13:55:00.916Z,2.13
2023-07-07T13:57:30.807Z,2.38
2023-07-07T13:59:58.957Z,2.90
2023-07-07T14:02:26.706Z,2.72
2023-07-07T14:05:07.327Z,2.60
2023-07-07T14:07:39.061Z,2.80
2023-07-07T14:10:29.072Z,3.08
2023-07-07T14:12:56.799Z,2.78
2023-07-07T14:15:33.120Z,2.58
2023-07-07T14:18:03.523Z,2.60
2023-07-07T14:20:36.884Z,2.88
2023-07-07T14:23:04.424Z,2.90
2023-07-07T14:25:31.672Z,2.35
2023-07-07T14:27:59.246Z,3.00
2023-07-07T14:30:26.977Z,2.78
2023-07-07T14:32:55.694Z,2.50
2023-07-07T14:35:30.361Z,2.42
2023-07-07T14:37:59.586Z,2.67
2023-07-07T14:40:34.766Z,3.05
2023-07-07T14:43:03.960Z,2.90
2023-07-07T14:45:34.762Z,2.60
2023-07-07T14:48:03.981Z,2.88
2023-07-07T14:50:31.818Z,3.20
2023-07-07T14:52:59.688Z,2.72
2023-07-07T14:55:29.414Z,2.67
2023-07-07T14:57:58.789Z,3.03
2023-07-07T15:00:30.595Z,3.10
2023-07-07T15:02:58.095Z,3.10
2023-07-07T15:05:30.030Z,3.30
2023-07-07T15:08:30.587Z,2.75
2023-07-07T15:11:07.614Z,3.20
2023-07-07T15:13:35.086Z,3.10
2023-07-07T15:16:05.552Z,3.40
2023-07-07T15:18:34.125Z,3.38
2023-07-07T15:21:01.476Z,3.33
2023-07-07T15:23:31.008Z,3.53
2023-07-07T15:26:00.109Z,3.53
2023-07-07T15:28:27.828Z,3.13
2023-07-07T15:30:55.697Z,3.55
2023-07-07T15:33:24.545Z,3.78
2023-07-07T15:35:52.578Z,3.90
2023-07-07T15:38:45.689Z,3.67
2023-07-07T15:41:17.570Z,4.50
2023-07-07T15:43:45.872Z,4.50
2023-07-07T15:46:20.899Z,4.65
2023-07-07T15:48:50.285Z,5.15
2023-07-07T15:51:38.285Z,4.68
2023-07-07T15:54:15.706Z,4.35
2023-07-07T15:56:44.507Z,5.32
2023-07-07T15:59:18.563Z,4.72
2023-07-07T16:01:46.169Z,4.60
2023-07-07T16:04:14.454Z,5.95
2023-07-07T16:06:42.832Z,6.10
2023-07-07T16:09:15.674Z,5.32
2023-07-07T16:11:43.918Z,4.80
2023-07-07T16:14:11.939Z,5.00
2023-07-07T16:16:40.176Z,5.70
2023-07-07T16:19:16.434Z,4.72
2023-07-07T16:21:44.371Z,8.23
2023-07-07T16:24:11.792Z,6.70
2023-07-07T16:26:40.562Z,4.82
2023-07-07T16:29:26.673Z,4.40
2023-07-07T16:31:54.112Z,4.88
2023-07-07T16:34:21.365Z,5.85
2023-07-07T16:36:48.574Z,4.20
2023-07-07T16:39:17.237Z,4.90
2023-07-07T16:41:44.470Z,5.15
2023-07-07T16:44:11.718Z,4.93
2023-07-07T16:46:39.274Z,7.20
2023-07-07T16:49:13.175Z,4.32
2023-07-07T16:51:41.250Z,4.32
2023-07-07T16:54:09.146Z,4.30
2023-07-07T16:56:37.814Z,4.70
2023-07-07T16:59:12.698Z,5.13
2023-07-07T17:01:40.058Z,5.45
2023-07-07T17:04:07.601Z,4.95
2023-07-07T17:06:36.029Z,4.28
2023-07-07T17:09:12.887Z,4.57
2023-07-07T17:11:41.264Z,3.97
2023-07-07T17:14:08.539Z,4.30
2023-07-07T17:16:36.760Z,4.97
2023-07-07T17:19:19.672Z,4.05
2023-07-07T17:21:46.969Z,4.15
2023-07-07T17:24:14.863Z,3.88
2023-07-07T17:26:43.416Z,7.10
2023-07-07T17:29:14.988Z,5.90
2023-07-07T17:31:42.609Z,4.93
2023-07-07T17:34:09.891Z,4.40
2023-07-07T17:36:37.942Z,4.28
2023-07-07T17:39:08.079Z,3.95
2023-07-07T17:41:36.646Z,4.45
2023-07-07T17:44:03.829Z,4.53
2023-07-07T17:46:33.118Z,4.60
2023-07-07T17:49:02.056Z,5.10
2023-07-07T17:51:29.937Z,4.95
2023-07-07T17:53:58.334Z,5.00
2023-07-07T17:56:27.308Z,4.20
2023-07-07T17:58:54.870Z,5.40
2023-07-07T18:01:22.591Z,4.82
2023-07-07T18:03:49.993Z,5.15
2023-07-07T18:06:21.124Z,5.07
2023-07-07T18:08:51.243Z,5.88
2023-07-07T18:11:26.695Z,5.93
2023-07-07T18:13:55.569Z,5.97
2023-07-07T18:16:25.066Z,5.95
2023-07-07T18:19:19.053Z,6.00
2023-07-07T18:21:52.332Z,6.18
2023-07-07T18:24:24.155Z,6.53
2023-07-07T18:26:53.246Z,5.18
2023-07-07T18:29:23.479Z,5.13
2023-07-07T18:31:50.897Z,6.30
2023-07-07T18:34:18.420Z,5.53
2023-07-07T18:36:48.602Z,5.57
2023-07-07T18:39:19.271Z,7.93
2023-07-07T18:41:46.700Z,5.78
2023-07-07T18:44:14.067Z,5.65
2023-07-07T18:46:42.553Z,5.93
2023-07-07T18:49:13.409Z,6.22
2023-07-07T18:51:44.117Z,5.97
2023-07-07T18:54:11.979Z,6.72
2023-07-07T18:56:41.539Z,5.68
2023-07-07T18:59:14.195Z,5.85
2023-07-07T19:01:42.076Z,6.47
2023-07-07T19:04:09.312Z,6.15
2023-07-07T19:06:38.377Z,5.72
2023-07-07T19:09:19.464Z,6.13
2023-07-07T19:11:50.764Z,6.15
2023-07-07T19:14:18.482Z,5.80
2023-07-07T19:16:46.067Z,5.68
2023-07-07T19:19:22.321Z,5.40
2023-07-07T19:21:49.867Z,5.53
2023-07-07T19:24:17.398Z,5.68
2023-07-07T19:26:48.045Z,6.20
2023-07-07T19:29:15.615Z,5.82
2023-07-07T19:31:44.199Z,6.15
2023-07-07T19:34:13.105Z,6.53
2023-07-07T19:36:44.141Z,6.40
2023-07-07T19:39:18.930Z,5.70
2023-07-07T19:41:47.060Z,5.35
2023-07-07T19:44:14.830Z,5.85
2023-07-07T19:46:43.136Z,6.05
2023-07-07T19:49:30.892Z,5.90
2023-07-07T19:51:58.367Z,5.60
2023-07-07T19:54:26.042Z,5.68
2023-07-07T19:56:55.318Z,6.25
2023-07-07T19:59:22.740Z,6.20
2023-07-07T20:01:49.982Z,6.10
2023-07-07T20:04:18.950Z,7.40
2023-07-07T20:06:47.133Z,8.27
2023-07-07T20:09:21.614Z,9.02
2023-07-07T20:11:49.834Z,8.02
2023-07-07T20:14:17.063Z,7.05
2023-07-07T20:16:46.811Z,7.03
2023-07-07T20:19:15.156Z,6.50
2023-07-07T20:21:42.882Z,6.25
2023-07-07T20:24:30.510Z,6.55
2023-07-07T20:27:04.220Z,6.65
2023-07-07T20:29:32.674Z,6.30
2023-07-07T20:31:59.969Z,6.00
2023-07-07T20:34:27.678Z,5.88
2023-07-07T20:36:55.048Z,6.40
2023-07-07T20:39:23.310Z,6.05
2023-07-07T20:41:51.149Z,6.72
2023-07-07T20:44:18.436Z,6.47
2023-07-07T20:46:46.557Z,6.18
2023-07-07T20:49:19.271Z,7.20
2023-07-07T20:51:47.176Z,7.90
2023-07-07T20:54:14.347Z,8.35
2023-07-07T20:56:41.496Z,7.60
2023-07-07T20:59:25.054Z,6.88
2023-07-07T21:01:57.655Z,6.80
2023-07-07T21:04:25.598Z,6.80
2023-07-07T21:06:53.344Z,7.00
2023-07-07T21:09:21.146Z,6.75
2023-07-07T21:11:49.334Z,6.75
2023-07-07T21:14:16.587Z,6.80
2023-07-07T21:16:46.907Z,6.85
2023-07-07T21:19:14.832Z,6.70
2023-07-07T21:21:42.220Z,7.20
2023-07-07T21:24:09.569Z,8.48
2023-07-07T21:26:36.932Z,11.38
2023-07-07T21:29:11.951Z,11.88
2023-07-07T21:31:40.554Z,11.40
2023-07-07T21:34:09.118Z,11.57
2023-07-07T21:36:38.448Z,13.60
2023-07-07T21:39:24.664Z,13.63
2023-07-07T21:42:02.605Z,13.68
2023-07-07T21:44:33.846Z,12.57
2023-07-07T21:47:01.332Z,10.00
2023-07-07T21:49:28.530Z,8.95
2023-07-07T21:51:56.216Z,9.52
2023-07-07T21:54:23.390Z,8.25
2023-07-07T21:56:50.487Z,10.35
2023-07-07T21:59:19.305Z,15.05
2023-07-07T22:01:48.512Z,14.90
2023-07-07T22:04:16.158Z,11.23
2023-07-07T22:06:43.955Z,9.43
2023-07-07T22:09:17.494Z,8.90
2023-07-07T22:11:45.026Z,9.20
2023-07-07T22:14:12.773Z,10.95
2023-07-07T22:16:40.066Z,11.82
2023-07-07T22:19:15.569Z,9.93
2023-07-07T22:21:42.779Z,12.40
2023-07-07T22:24:10.232Z,16.95
2023-07-07T22:26:38.034Z,22.48
2023-07-07T22:29:05.090Z,20.92
2023-07-07T22:31:32.329Z,15.48
2023-07-07T22:33:59.670Z,11.75
2023-07-07T22:36:27.827Z,12.50
2023-07-07T22:38:55.025Z,9.57
2023-07-07T22:41:27.072Z,8.63
2023-07-07T22:43:54.212Z,6.78
2023-07-07T22:46:32.458Z,6.38
2023-07-07T22:48:59.666Z,6.30
2023-07-07T22:51:27.038Z,6.18
2023-07-07T22:53:54.842Z,6.13
2023-07-07T22:56:30.322Z,6.70
2023-07-07T22:58:58.056Z,6.68
2023-07-07T23:01:25.916Z,7.03
2023-07-07T23:03:57.586Z,6.38
2023-07-07T23:06:24.963Z,6.85
2023-07-07T23:08:58.716Z,7.50
2023-07-07T23:11:26.530Z,6.35
2023-07-07T23:13:58.000Z,6.47
2023-07-07T23:16:26.423Z,7.03
2023-07-07T23:18:54.362Z,6.78
2023-07-07T23:21:22.005Z,6.80
2023-07-07T23:23:49.462Z,7.03
2023-07-07T23:26:21.024Z,7.15
2023-07-07T23:28:48.839Z,7.20
2023-07-07T23:31:17.867Z,6.80
2023-07-07T23:33:45.738Z,6.22
2023-07-07T23:36:17.650Z,6.38
2023-07-07T23:38:45.581Z,6.55
2023-07-07T23:41:13.471Z,5.88
2023-07-07T23:43:40.905Z,6.22
2023-07-07T23:46:12.719Z,5.00
2023-07-07T23:48:40.507Z,5.15
2023-07-07T23:51:10.850Z,5.45
2023-07-07T23:53:39.680Z,4.85
2023-07-07T23:56:12.336Z,5.18
2023-07-07T23:58:39.812Z,4.95
